createdAt,value
2019-06-10T00:01:57.442Z,16.50
2019-06-10T00:04:43.370Z,16.50
2019-06-10T00:07:28.355Z,16.50
2019-06-10T00:10:13.724Z,16.50
2019-06-10T00:13:01.008Z,16.40
2019-06-10T00:15:45.472Z,16.30
2019-06-10T00:18:40.701Z,16.10
2019-06-10T00:21:17.283Z,16.00
2019-06-10T00:24:02.609Z,16.10
2019-06-10T00:26:51.036Z,16.10
2019-06-10T00:29:35.893Z,16.20
2019-06-10T00:32:21.527Z,16.20
2019-06-10T00:35:07.764Z,16.30
2019-06-10T00:37:52.975Z,16.30
2019-06-10T00:40:37.689Z,16.30
2019-06-10T00:43:22.498Z,16.30
2019-06-10T00:46:07.766Z,16.30
2019-06-10T00:48:53.790Z,16.30
2019-06-10T00:51:41.458Z,16.30
2019-06-10T00:54:26.287Z,16.20
2019-06-10T00:57:12.364Z,16.20
2019-06-10T00:59:57.881Z,16.20
2019-06-10T01:02:42.839Z,16.20
2019-06-10T01:05:27.636Z,16.20
2019-06-10T01:08:15.564Z,16.30
2019-06-10T01:11:04.124Z,16.20
2019-06-10T01:13:46.145Z,16.20
2019-06-10T01:16:31.764Z,16.20
2019-06-10T01:19:16.814Z,16.10
2019-06-10T01:22:01.672Z,16.10
2019-06-10T01:24:46.936Z,16.10
2019-06-10T01:27:31.761Z,16.10
2019-06-10T01:30:22.588Z,16.20
2019-06-10T01:33:03.611Z,16.20
2019-06-10T01:35:48.475Z,16.20
2019-06-10T01:38:33.294Z,16.30
2019-06-10T01:41:21.155Z,16.20
2019-06-10T01:44:06.476Z,16.20
2019-06-10T01:46:51.686Z,16.20
2019-06-10T01:49:36.758Z,16.10
2019-06-10T01:52:21.597Z,16.10
2019-06-10T01:55:07.561Z,16.10
2019-06-10T01:57:52.745Z,16.10
2019-06-10T02:00:57.818Z,16.00
2019-06-10T02:03:42.445Z,16.00
2019-06-10T02:06:31.483Z,16.00
2019-06-10T02:09:17.194Z,15.90
2019-06-10T02:12:03.053Z,15.90
2019-06-10T02:14:48.054Z,15.90
2019-06-10T02:17:32.793Z,15.80
2019-06-10T02:20:18.474Z,15.90
2019-06-10T02:23:04.319Z,16.00
2019-06-10T02:25:51.270Z,16.00
2019-06-10T02:28:36.641Z,16.00
2019-06-10T02:31:30.107Z,15.90
2019-06-10T02:34:08.690Z,15.90
2019-06-10T02:36:54.023Z,15.90
2019-06-10T02:39:39.405Z,16.00
2019-06-10T02:42:30.707Z,15.90
2019-06-10T02:45:18.317Z,16.00
2019-06-10T02:48:03.908Z,15.90
2019-06-10T02:50:54.001Z,15.90
2019-06-10T02:53:38.242Z,16.00
2019-06-10T02:56:30.004Z,16.00
2019-06-10T02:59:13.070Z,16.00
2019-06-10T03:01:57.123Z,16.00
2019-06-10T03:04:43.343Z,15.90
2019-06-10T03:07:31.088Z,15.80
2019-06-10T03:10:16.320Z,15.90
2019-06-10T03:13:05.286Z,15.80
2019-06-10T03:15:52.311Z,15.80
2019-06-10T03:18:37.542Z,15.90
2019-06-10T03:21:24.241Z,15.90
2019-06-10T03:24:09.190Z,15.90
2019-06-10T03:26:54.551Z,15.90
2019-06-10T03:29:39.205Z,15.90
2019-06-10T03:32:32.611Z,15.90
2019-06-10T03:35:13.224Z,15.90
2019-06-10T03:37:58.242Z,16.00
2019-06-10T03:40:43.457Z,16.00
2019-06-10T03:43:28.463Z,15.90
2019-06-10T03:46:13.712Z,15.90
2019-06-10T03:48:59.098Z,15.90
2019-06-10T03:51:43.785Z,15.90
2019-06-10T03:54:29.561Z,15.80
2019-06-10T03:57:14.969Z,15.80
2019-06-10T04:00:01.974Z,15.70
2019-06-10T04:02:46.649Z,15.60
2019-06-10T04:05:33.164Z,15.60
2019-06-10T04:08:19.421Z,15.50
2019-06-10T04:11:04.453Z,15.50
2019-06-10T04:13:49.490Z,15.50
2019-06-10T04:16:34.268Z,15.50
2019-06-10T04:19:19.641Z,15.60
2019-06-10T04:22:04.246Z,15.60
2019-06-10T04:24:49.125Z,15.70
2019-06-10T04:27:33.821Z,15.80
2019-06-10T04:30:23.204Z,15.90
2019-06-10T04:33:07.497Z,15.90
2019-06-10T04:35:52.281Z,16.00
2019-06-10T04:38:37.146Z,16.10
2019-06-10T04:41:23.450Z,16.30
2019-06-10T04:44:08.622Z,16.50
2019-06-10T04:46:53.646Z,16.50
2019-06-10T04:49:38.530Z,16.50
2019-06-10T04:52:25.148Z,16.60
2019-06-10T04:55:12.635Z,16.60
2019-06-10T04:57:57.857Z,16.60
2019-06-10T05:00:42.977Z,16.60
2019-06-10T05:03:28.360Z,16.50
2019-06-10T05:06:14.334Z,16.50
2019-06-10T05:08:59.186Z,16.40
2019-06-10T05:11:43.958Z,16.50
2019-06-10T05:14:30.295Z,16.60
2019-06-10T05:17:15.719Z,16.60
2019-06-10T05:20:02.529Z,16.60
2019-06-10T05:22:47.533Z,16.60
2019-06-10T05:25:32.727Z,16.60
2019-06-10T05:28:18.136Z,16.50
2019-06-10T05:31:03.112Z,16.50
2019-06-10T05:33:48.234Z,16.60
2019-06-10T05:36:34.602Z,16.70
2019-06-10T05:39:20.998Z,16.70
2019-06-10T05:42:07.000Z,16.80
2019-06-10T05:44:52.487Z,16.80
2019-06-10T05:47:37.428Z,16.80
2019-06-10T05:50:23.712Z,17.00
2019-06-10T05:53:09.178Z,17.10
2019-06-10T05:55:54.093Z,17.20
2019-06-10T05:58:38.873Z,17.40
2019-06-10T06:01:24.537Z,17.50
2019-06-10T06:04:12.646Z,17.50
2019-06-10T06:06:57.674Z,17.50
2019-06-10T06:09:42.741Z,17.40
2019-06-10T06:12:29.105Z,17.50
2019-06-10T06:15:14.965Z,17.50
2019-06-10T06:18:07.198Z,17.80
2019-06-10T06:20:46.470Z,17.90
2019-06-10T06:23:33.885Z,17.90
2019-06-10T06:26:18.081Z,17.80
2019-06-10T06:29:04.862Z,17.80
2019-06-10T06:31:52.103Z,17.70
2019-06-10T06:34:38.687Z,17.70
2019-06-10T06:37:23.425Z,17.60
2019-06-10T06:40:08.634Z,17.50
2019-06-10T06:42:53.617Z,17.50
2019-06-10T06:45:39.000Z,17.60
2019-06-10T06:48:24.238Z,17.60
2019-06-10T06:51:08.991Z,17.60
2019-06-10T06:53:56.232Z,17.60
2019-06-10T06:56:41.084Z,17.60
2019-06-10T06:59:27.436Z,17.50
2019-06-10T07:02:12.491Z,17.50
2019-06-10T07:04:57.803Z,17.40
2019-06-10T07:07:43.464Z,17.40
2019-06-10T07:10:30.935Z,17.40
2019-06-10T07:13:16.573Z,17.40
2019-06-10T07:16:02.925Z,17.50
2019-06-10T07:18:50.288Z,17.60
2019-06-10T07:21:55.721Z,17.80
2019-06-10T07:24:23.164Z,17.90
2019-06-10T07:27:08.293Z,18.00
2019-06-10T07:29:53.221Z,18.10
2019-06-10T07:32:39.204Z,18.10
2019-06-10T07:35:25.089Z,18.10
2019-06-10T07:38:12.235Z,18.10
2019-06-10T07:40:57.159Z,18.10
2019-06-10T07:43:48.975Z,18.10
2019-06-10T07:46:28.905Z,18.00
2019-06-10T07:49:13.690Z,18.00
2019-06-10T07:52:14.882Z,18.10
2019-06-10T07:54:49.294Z,18.00
2019-06-10T07:57:37.502Z,18.00
2019-06-10T08:00:22.970Z,18.00
2019-06-10T08:03:07.628Z,18.10
2019-06-10T08:05:52.692Z,18.20
2019-06-10T08:08:38.840Z,18.50
2019-06-10T08:11:24.356Z,18.50
2019-06-10T08:14:09.549Z,18.70
2019-06-10T08:16:54.327Z,18.80
2019-06-10T08:19:42.845Z,18.90
2019-06-10T08:22:33.440Z,18.80
2019-06-10T08:25:13.325Z,18.90
2019-06-10T08:27:58.675Z,19.00
2019-06-10T08:30:46.128Z,19.30
2019-06-10T08:33:33.112Z,19.70
2019-06-10T08:36:18.621Z,20.00
2019-06-10T08:39:05.374Z,20.10
2019-06-10T08:41:52.676Z,20.40
2019-06-10T08:44:37.148Z,20.30
2019-06-10T08:47:22.921Z,20.30
2019-06-10T08:50:08.149Z,20.30
2019-06-10T08:53:09.037Z,20.40
2019-06-10T08:55:42.872Z,20.30
2019-06-10T08:58:27.109Z,20.20
2019-06-10T09:01:13.285Z,20.10
2019-06-10T09:03:58.763Z,19.90
2019-06-10T09:06:48.791Z,19.80
2019-06-10T09:09:33.063Z,19.90
2019-06-10T09:12:30.403Z,20.10
2019-06-10T09:15:05.627Z,19.80
2019-06-10T09:17:55.251Z,19.70
2019-06-10T09:20:40.317Z,19.50
2019-06-10T09:23:25.695Z,19.30
2019-06-10T09:26:12.525Z,19.10
2019-06-10T09:28:57.963Z,19.40
2019-06-10T09:31:46.755Z,20.10
2019-06-10T09:34:29.139Z,20.50
2019-06-10T09:37:14.224Z,20.90
2019-06-10T09:39:59.862Z,21.10
2019-06-10T09:42:48.134Z,21.00
2019-06-10T09:45:33.198Z,21.10
2019-06-10T09:48:22.705Z,21.00
2019-06-10T09:51:08.345Z,21.00
2019-06-10T09:54:02.441Z,21.30
2019-06-10T09:56:42.771Z,21.20
2019-06-10T09:59:26.893Z,20.90
2019-06-10T10:02:12.579Z,20.60
2019-06-10T10:04:58.542Z,20.40
2019-06-10T10:07:46.988Z,20.20
2019-06-10T10:10:35.851Z,20.10
2019-06-10T10:13:22.518Z,20.00
2019-06-10T10:16:07.554Z,20.00
2019-06-10T10:19:00.220Z,19.90
2019-06-10T10:21:41.306Z,20.00
2019-06-10T10:24:25.878Z,20.00
2019-06-10T10:27:13.237Z,19.90
2019-06-10T10:29:57.563Z,20.10
2019-06-10T10:32:47.112Z,20.20
2019-06-10T10:35:32.628Z,20.20
2019-06-10T10:38:17.240Z,20.30
2019-06-10T10:41:04.477Z,20.50
2019-06-10T10:43:52.377Z,20.80
2019-06-10T10:46:36.695Z,21.50
2019-06-10T10:49:23.152Z,21.90
2019-06-10T10:52:07.887Z,22.40
2019-06-10T10:54:54.306Z,22.80
2019-06-10T10:57:40.282Z,22.40
2019-06-10T11:00:36.444Z,22.20
2019-06-10T11:03:16.791Z,21.80
2019-06-10T11:06:02.841Z,21.60
2019-06-10T11:08:48.308Z,21.60
2019-06-10T11:11:33.688Z,21.40
2019-06-10T11:14:19.147Z,21.20
2019-06-10T11:17:03.922Z,21.00
2019-06-10T11:19:49.324Z,20.80
2019-06-10T11:22:34.698Z,20.60
2019-06-10T11:25:19.869Z,20.40
2019-06-10T11:28:05.163Z,20.20
2019-06-10T11:30:52.693Z,19.90
2019-06-10T11:33:37.165Z,19.90
2019-06-10T11:36:22.796Z,20.10
2019-06-10T11:39:08.078Z,20.60
2019-06-10T11:41:53.347Z,21.50
2019-06-10T11:44:39.575Z,22.30
2019-06-10T11:47:24.726Z,23.20
2019-06-10T11:50:12.128Z,23.70
2019-06-10T11:53:00.544Z,23.80
2019-06-10T11:55:43.813Z,24.10
2019-06-10T11:58:28.642Z,24.10
2019-06-10T12:01:13.585Z,23.80
2019-06-10T12:04:00.145Z,23.30
2019-06-10T12:06:45.328Z,22.90
2019-06-10T12:09:30.238Z,22.40
2019-06-10T12:12:15.327Z,22.20
2019-06-10T12:15:01.460Z,22.00
2019-06-10T12:17:50.902Z,21.90
2019-06-10T12:20:33.547Z,21.80
2019-06-10T12:23:18.805Z,21.70
2019-06-10T12:26:05.451Z,21.60
2019-06-10T12:28:54.611Z,21.60
2019-06-10T12:31:38.239Z,21.50
2019-06-10T12:34:23.511Z,21.50
2019-06-10T12:37:15.527Z,21.30
2019-06-10T12:40:12.598Z,21.40
2019-06-10T12:42:59.246Z,21.20
2019-06-10T12:45:43.929Z,21.00
2019-06-10T12:48:29.148Z,20.70
2019-06-10T12:51:14.119Z,20.50
2019-06-10T12:53:59.425Z,20.20
2019-06-10T12:56:44.766Z,19.90
2019-06-10T12:59:32.497Z,19.80
2019-06-10T13:02:23.284Z,19.70
2019-06-10T13:05:07.033Z,19.70
2019-06-10T13:07:53.635Z,19.70
2019-06-10T13:10:43.092Z,19.60
2019-06-10T13:13:28.404Z,19.50
2019-06-10T13:16:14.329Z,19.60
2019-06-10T13:19:00.132Z,19.70
2019-06-10T13:21:45.001Z,19.70
2019-06-10T13:24:29.814Z,19.80
2019-06-10T13:27:17.343Z,19.70
2019-06-10T13:30:04.893Z,19.80
2019-06-10T13:32:52.552Z,19.90
2019-06-10T13:35:36.710Z,20.00
2019-06-10T13:38:25.402Z,20.10
2019-06-10T13:41:08.634Z,20.10
2019-06-10T13:43:53.644Z,20.10
2019-06-10T13:46:38.689Z,19.90
2019-06-10T13:49:25.564Z,19.90
2019-06-10T13:52:16.258Z,19.90
2019-06-10T13:54:57.119Z,20.00
2019-06-10T13:57:44.766Z,20.10
2019-06-10T14:00:40.773Z,20.20
2019-06-10T14:03:16.613Z,20.30
2019-06-10T14:06:11.325Z,20.40
2019-06-10T14:08:48.071Z,20.30
2019-06-10T14:11:34.002Z,20.30
2019-06-10T14:14:20.196Z,20.20
2019-06-10T14:17:07.451Z,20.10
2019-06-10T14:19:52.498Z,19.80
2019-06-10T14:22:37.454Z,19.70
2019-06-10T14:25:23.266Z,19.60
2019-06-10T14:28:10.595Z,19.60
2019-06-10T14:30:55.931Z,19.60
2019-06-10T14:33:42.942Z,19.60
2019-06-10T14:36:28.185Z,19.50
2019-06-10T14:39:15.630Z,19.50
2019-06-10T14:42:00.526Z,19.60
2019-06-10T14:44:45.474Z,19.50
2019-06-10T14:47:32.495Z,19.60
2019-06-10T14:50:18.557Z,19.70
2019-06-10T14:53:04.763Z,19.80
2019-06-10T14:55:52.868Z,20.00
2019-06-10T14:58:36.878Z,20.10
2019-06-10T15:01:25.559Z,20.20
2019-06-10T15:04:10.075Z,20.40
2019-06-10T15:06:55.563Z,20.30
2019-06-10T15:09:40.218Z,20.20
2019-06-10T15:12:25.122Z,20.20
2019-06-10T15:15:10.439Z,20.30
2019-06-10T15:17:55.082Z,20.30
2019-06-10T15:20:42.620Z,20.30
2019-06-10T15:23:26.623Z,20.10
2019-06-10T15:26:14.431Z,20.00
2019-06-10T15:28:58.466Z,20.00
2019-06-10T15:31:43.321Z,20.10
2019-06-10T15:34:28.026Z,20.10
2019-06-10T15:37:15.817Z,20.00
2019-06-10T15:39:59.648Z,19.90
2019-06-10T15:42:46.297Z,19.90
2019-06-10T15:45:32.489Z,19.70
2019-06-10T15:48:18.832Z,19.60
2019-06-10T15:51:04.671Z,19.50
2019-06-10T15:53:49.490Z,19.30
2019-06-10T15:56:45.625Z,19.10
2019-06-10T15:59:21.427Z,19.10
2019-06-10T16:02:06.721Z,19.00
2019-06-10T16:04:52.699Z,18.90
2019-06-10T16:07:37.891Z,18.90
2019-06-10T16:10:27.480Z,18.90
2019-06-10T16:13:10.503Z,18.80
2019-06-10T16:15:55.650Z,18.70
2019-06-10T16:18:42.382Z,18.60
2019-06-10T16:21:27.305Z,18.70
2019-06-10T16:24:13.675Z,18.60
2019-06-10T16:27:03.165Z,18.70
2019-06-10T16:29:47.280Z,18.70
2019-06-10T16:32:33.963Z,18.70
2019-06-10T16:35:18.950Z,18.70
2019-06-10T16:38:04.269Z,18.70
2019-06-10T16:40:49.062Z,18.60
2019-06-10T16:43:33.807Z,18.40
2019-06-10T16:46:18.476Z,18.40
2019-06-10T16:49:03.443Z,18.30
2019-06-10T16:51:48.686Z,18.20
2019-06-10T16:54:33.414Z,18.20
2019-06-10T16:57:18.216Z,18.20
2019-06-10T17:00:11.974Z,18.20
2019-06-10T17:02:55.141Z,18.20
2019-06-10T17:05:42.465Z,18.40
2019-06-10T17:08:30.289Z,18.30
2019-06-10T17:11:15.473Z,18.30
2019-06-10T17:14:00.329Z,18.30
2019-06-10T17:16:45.149Z,18.40
2019-06-10T17:19:30.361Z,18.40
2019-06-10T17:22:15.677Z,18.50
2019-06-10T17:25:00.510Z,18.50
2019-06-10T17:27:45.346Z,18.40
2019-06-10T17:30:34.635Z,18.20
2019-06-10T17:33:22.916Z,18.10
2019-06-10T17:36:08.255Z,18.00
2019-06-10T17:38:52.983Z,17.90
2019-06-10T17:41:37.707Z,17.90
2019-06-10T17:44:24.277Z,17.90
2019-06-10T17:47:09.824Z,17.80
2019-06-10T17:49:54.761Z,17.90
2019-06-10T17:52:39.483Z,17.90
2019-06-10T17:55:26.531Z,17.90
2019-06-10T17:58:13.062Z,17.90
2019-06-10T18:00:58.201Z,18.00
2019-06-10T18:03:43.835Z,18.00
2019-06-10T18:06:29.689Z,17.90
2019-06-10T18:09:14.942Z,17.80
2019-06-10T18:12:02.393Z,17.70
2019-06-10T18:14:47.467Z,17.60
2019-06-10T18:17:34.862Z,17.50
2019-06-10T18:20:19.306Z,17.40
2019-06-10T18:23:04.395Z,17.40
2019-06-10T18:25:49.317Z,17.40
2019-06-10T18:28:53.727Z,17.30
2019-06-10T18:31:23.400Z,17.40
2019-06-10T18:34:08.286Z,17.30
2019-06-10T18:36:53.211Z,17.30
2019-06-10T18:39:37.948Z,17.20
2019-06-10T18:42:23.641Z,17.20
2019-06-10T18:45:10.283Z,17.20
2019-06-10T18:47:57.096Z,17.30
2019-06-10T18:50:43.224Z,17.30
2019-06-10T18:53:28.485Z,17.40
2019-06-10T18:56:13.782Z,17.40
2019-06-10T18:59:13.430Z,17.40
2019-06-10T19:01:45.525Z,17.40
2019-06-10T19:04:35.013Z,17.40
2019-06-10T19:07:18.947Z,17.30
2019-06-10T19:10:06.528Z,17.40
2019-06-10T19:12:53.132Z,17.30
2019-06-10T19:15:39.780Z,17.30
2019-06-10T19:18:26.153Z,17.30
2019-06-10T19:21:12.829Z,17.20
2019-06-10T19:23:59.528Z,17.20
2019-06-10T19:26:45.157Z,17.10
2019-06-10T19:29:38.406Z,17.10
2019-06-10T19:32:17.559Z,17.00
2019-06-10T19:35:06.997Z,17.00
2019-06-10T19:37:51.698Z,17.00
2019-06-10T19:40:38.362Z,16.90
2019-06-10T19:43:25.117Z,16.80
2019-06-10T19:46:10.005Z,16.60
2019-06-10T19:48:59.497Z,16.70
2019-06-10T19:51:44.064Z,16.70
2019-06-10T19:54:28.430Z,16.70
2019-06-10T19:57:13.819Z,16.80
2019-06-10T20:00:08.510Z,16.80
2019-06-10T20:02:47.037Z,16.80
2019-06-10T20:05:34.315Z,16.90
2019-06-10T20:08:19.494Z,16.90
2019-06-10T20:11:04.518Z,16.90
2019-06-10T20:13:49.706Z,16.80
2019-06-10T20:16:37.749Z,16.80
2019-06-10T20:19:23.118Z,16.70
2019-06-10T20:22:08.593Z,16.70
2019-06-10T20:24:53.811Z,16.70
2019-06-10T20:27:39.703Z,16.60
2019-06-10T20:30:28.861Z,16.60
2019-06-10T20:33:14.669Z,16.60
2019-06-10T20:35:59.668Z,16.60
2019-06-10T20:38:48.191Z,16.60
2019-06-10T20:41:32.635Z,16.60
2019-06-10T20:44:17.406Z,16.50
2019-06-10T20:47:02.700Z,16.50
2019-06-10T20:49:51.408Z,16.50
2019-06-10T20:52:34.937Z,16.40
2019-06-10T20:55:20.198Z,16.40
2019-06-10T20:58:07.335Z,16.40
2019-06-10T21:00:56.865Z,16.40
2019-06-10T21:03:39.073Z,16.40
2019-06-10T21:06:26.106Z,16.40
2019-06-10T21:09:13.155Z,16.40
2019-06-10T21:11:57.695Z,16.40
2019-06-10T21:14:44.173Z,16.40
2019-06-10T21:17:29.478Z,16.40
2019-06-10T21:20:16.878Z,16.30
2019-06-10T21:23:03.048Z,16.30
2019-06-10T21:25:50.725Z,16.20
2019-06-10T21:28:35.380Z,16.20
2019-06-10T21:31:20.262Z,16.10
2019-06-10T21:34:05.089Z,16.10
2019-06-10T21:36:49.834Z,16.10
2019-06-10T21:39:34.691Z,16.20
2019-06-10T21:42:19.488Z,16.10
2019-06-10T21:45:04.968Z,16.10
2019-06-10T21:47:50.417Z,16.10
2019-06-10T21:50:35.576Z,16.00
2019-06-10T21:53:22.300Z,16.00
2019-06-10T21:56:07.126Z,16.00
2019-06-10T21:58:55.044Z,16.00
2019-06-10T22:01:38.934Z,15.90
2019-06-10T22:04:23.966Z,15.80
2019-06-10T22:07:08.698Z,15.80
2019-06-10T22:09:56.019Z,15.70
2019-06-10T22:12:42.154Z,15.70
2019-06-10T22:15:27.222Z,15.60
2019-06-10T22:18:12.688Z,15.70
2019-06-10T22:20:57.994Z,15.50
2019-06-10T22:23:44.600Z,15.50
2019-06-10T22:26:32.118Z,15.50
2019-06-10T22:29:16.466Z,15.50
2019-06-10T22:32:02.627Z,15.50
2019-06-10T22:34:47.691Z,15.50
2019-06-10T22:37:32.964Z,15.50
2019-06-10T22:40:18.121Z,15.50
2019-06-10T22:43:03.511Z,15.30
2019-06-10T22:45:49.472Z,15.30
2019-06-10T22:48:34.691Z,15.20
2019-06-10T22:51:19.431Z,15.20
2019-06-10T22:54:04.488Z,15.10
2019-06-10T22:56:49.478Z,15.10
2019-06-10T22:59:34.697Z,15.10
2019-06-10T23:02:19.421Z,15.20
2019-06-10T23:05:05.616Z,15.10
2019-06-10T23:07:53.261Z,15.10
2019-06-10T23:10:38.422Z,15.20
2019-06-10T23:13:23.321Z,15.10
2019-06-10T23:16:08.130Z,15.10
2019-06-10T23:18:55.001Z,15.00
2019-06-10T23:21:39.706Z,15.00
2019-06-10T23:24:24.562Z,15.10
2019-06-10T23:27:09.569Z,15.10
2019-06-10T23:29:56.010Z,15.00
2019-06-10T23:32:42.272Z,14.90
2019-06-10T23:35:27.652Z,15.00
2019-06-10T23:38:13.134Z,15.00
2019-06-10T23:40:58.896Z,15.00
2019-06-10T23:43:45.658Z,14.90
2019-06-10T23:46:31.979Z,14.90
2019-06-10T23:49:17.004Z,14.90
2019-06-10T23:52:04.962Z,14.90
2019-06-10T23:54:48.736Z,14.90
2019-06-10T23:57:33.606Z,14.90
